createdAt,value
2018-05-29T00:00:30.098Z,91.90
2018-05-29T00:01:32.590Z,91.80
2018-05-29T00:02:35.849Z,92.00
2018-05-29T00:03:38.392Z,91.90
2018-05-29T00:04:40.893Z,91.90
2018-05-29T00:05:44.144Z,92.20
2018-05-29T00:06:46.608Z,92.10
2018-05-29T00:07:49.102Z,92.20
2018-05-29T00:08:51.581Z,91.90
2018-05-29T00:09:54.069Z,92.40
2018-05-29T00:10:56.515Z,91.90
2018-05-29T00:11:59.012Z,92.20
2018-05-29T00:13:01.573Z,92.20
2018-05-29T00:14:04.041Z,92.40
2018-05-29T00:15:07.324Z,92.30
2018-05-29T00:16:10.566Z,92.50
2018-05-29T00:17:13.061Z,92.40
2018-05-29T00:18:15.602Z,92.40
2018-05-29T00:19:18.081Z,92.00
2018-05-29T00:20:21.316Z,92.20
2018-05-29T00:21:23.778Z,92.20
2018-05-29T00:22:26.285Z,92.30
2018-05-29T00:23:29.517Z,92.50
2018-05-29T00:24:32.754Z,92.10
2018-05-29T00:25:35.996Z,92.30
2018-05-29T00:26:38.448Z,92.30
2018-05-29T00:27:40.942Z,92.40
2018-05-29T00:28:43.422Z,92.60
2018-05-29T00:29:45.900Z,92.40
2018-05-29T00:30:49.143Z,92.70
2018-05-29T00:31:51.618Z,92.70
2018-05-29T00:32:54.105Z,93.10
2018-05-29T00:33:56.592Z,93.10
2018-05-29T00:34:59.074Z,93.10
2018-05-29T00:36:01.620Z,93.40
2018-05-29T00:37:04.116Z,93.30
2018-05-29T00:38:06.629Z,92.90
2018-05-29T00:39:09.853Z,93.20
2018-05-29T00:40:13.136Z,93.50
2018-05-29T00:41:15.609Z,93.50
2018-05-29T00:42:18.849Z,93.00
2018-05-29T00:43:21.423Z,93.00
2018-05-29T00:44:24.020Z,93.10
2018-05-29T00:45:27.295Z,93.10
2018-05-29T00:46:29.773Z,93.10
2018-05-29T00:47:32.290Z,93.40
2018-05-29T00:48:34.843Z,93.90
2018-05-29T00:49:38.700Z,93.30
2018-05-29T00:50:41.957Z,93.20
2018-05-29T00:51:45.189Z,93.70
2018-05-29T00:52:48.496Z,93.20
2018-05-29T00:53:50.969Z,93.10
2018-05-29T00:55:05.993Z,93.50
2018-05-29T00:56:09.224Z,93.40
2018-05-29T00:57:11.699Z,93.50
2018-05-29T00:58:14.200Z,94.10
2018-05-29T00:59:16.713Z,93.70
2018-05-29T01:00:19.181Z,93.80
2018-05-29T01:01:21.672Z,93.60
2018-05-29T01:02:24.167Z,93.90
2018-05-29T01:03:27.433Z,94.00
2018-05-29T01:04:29.953Z,94.00
2018-05-29T01:05:32.792Z,93.90
2018-05-29T01:06:35.274Z,94.70
2018-05-29T01:07:38.521Z,94.30
2018-05-29T01:08:41.107Z,94.10
2018-05-29T01:09:44.120Z,94.10
2018-05-29T01:10:46.598Z,94.00
2018-05-29T01:11:49.079Z,94.00
2018-05-29T01:12:51.546Z,94.20
2018-05-29T01:13:54.031Z,94.10
2018-05-29T01:14:56.505Z,94.50
2018-05-29T01:15:58.973Z,94.40
2018-05-29T01:17:01.479Z,94.60
2018-05-29T01:18:04.820Z,95.00
2018-05-29T01:19:08.073Z,94.60
2018-05-29T01:20:10.543Z,94.60
2018-05-29T01:21:13.007Z,95.30
2018-05-29T01:22:16.249Z,95.20
2018-05-29T01:23:19.517Z,95.40
2018-05-29T01:24:21.999Z,95.30
2018-05-29T01:25:24.492Z,95.30
2018-05-29T01:26:27.030Z,95.70
2018-05-29T01:27:29.505Z,95.40
2018-05-29T01:28:32.010Z,95.30
2018-05-29T01:29:35.268Z,95.40
2018-05-29T01:30:38.519Z,95.60
2018-05-29T01:31:41.041Z,95.60
2018-05-29T01:32:43.582Z,95.20
2018-05-29T01:33:46.325Z,95.30
2018-05-29T01:34:48.808Z,95.60
2018-05-29T01:35:52.054Z,95.70
2018-05-29T01:36:55.289Z,95.70
2018-05-29T01:37:57.744Z,95.70
2018-05-29T01:39:00.232Z,95.40
2018-05-29T01:40:03.487Z,96.20
2018-05-29T01:41:06.727Z,96.20
2018-05-29T01:42:09.966Z,96.60
2018-05-29T01:43:13.220Z,96.50
2018-05-29T01:44:16.465Z,96.80
2018-05-29T01:45:19.688Z,96.60
2018-05-29T01:46:22.256Z,96.60
2018-05-29T01:47:24.725Z,96.20
2018-05-29T01:48:28.096Z,96.10
2018-05-29T01:49:31.362Z,96.20
2018-05-29T01:50:33.886Z,96.20
2018-05-29T01:51:36.416Z,97.20
2018-05-29T01:52:38.898Z,96.80
2018-05-29T01:53:41.450Z,96.90
2018-05-29T01:54:44.675Z,97.00
2018-05-29T01:55:47.920Z,97.00
2018-05-29T01:56:50.567Z,97.00
2018-05-29T01:57:53.055Z,97.00
2018-05-29T01:58:55.535Z,96.70
2018-05-29T01:59:58.009Z,97.20
2018-05-29T02:01:00.729Z,97.40
2018-05-29T02:02:03.219Z,97.40
2018-05-29T02:03:05.704Z,97.20
2018-05-29T02:04:08.184Z,97.10
2018-05-29T02:05:10.696Z,97.20
2018-05-29T02:06:13.175Z,97.10
2018-05-29T02:07:16.408Z,97.30
2018-05-29T02:08:18.877Z,97.30
2018-05-29T02:09:21.364Z,97.30
2018-05-29T02:10:24.599Z,97.80
2018-05-29T02:11:27.061Z,97.60
2018-05-29T02:12:29.527Z,98.00
2018-05-29T02:13:31.985Z,97.60
2018-05-29T02:14:35.236Z,97.60
2018-05-29T02:15:38.471Z,97.80
2018-05-29T02:16:41.118Z,97.80
2018-05-29T02:17:43.596Z,98.30
2018-05-29T02:18:46.062Z,98.30
2018-05-29T02:19:49.321Z,98.10
2018-05-29T02:20:51.798Z,98.10
2018-05-29T02:21:54.464Z,98.20
2018-05-29T02:22:56.942Z,98.20
2018-05-29T02:23:59.511Z,98.90
2018-05-29T02:25:02.731Z,98.50
2018-05-29T02:26:06.015Z,99.00
2018-05-29T02:27:08.486Z,98.90
2018-05-29T02:28:10.993Z,98.50
2018-05-29T02:29:13.467Z,99.40
2018-05-29T02:30:16.768Z,98.80
2018-05-29T02:31:19.233Z,98.80
2018-05-29T02:32:22.539Z,98.70
2018-05-29T02:33:25.030Z,98.70
2018-05-29T02:34:27.516Z,98.80
2018-05-29T02:35:29.990Z,99.00
2018-05-29T02:36:32.595Z,99.00
2018-05-29T02:37:35.094Z,98.80
2018-05-29T02:38:38.279Z,99.00
2018-05-29T02:39:40.753Z,99.10
2018-05-29T02:40:43.282Z,99.40
2018-05-29T02:41:45.927Z,99.60
2018-05-29T02:42:49.179Z,99.50
2018-05-29T02:43:51.655Z,99.50
2018-05-29T02:44:54.117Z,99.20
2018-05-29T02:45:57.358Z,99.70
2018-05-29T02:47:00.598Z,99.60
2018-05-29T02:48:03.839Z,99.60
2018-05-29T02:49:07.095Z,99.70
2018-05-29T02:50:09.590Z,99.70
2018-05-29T02:51:12.673Z,99.90
2018-05-29T02:52:15.140Z,99.90
2018-05-29T02:53:17.618Z,99.90
2018-05-29T02:54:20.567Z,99.90
2018-05-29T02:55:23.079Z,99.90
2018-05-29T02:56:26.511Z,99.90
2018-05-29T02:57:29.012Z,99.90
2018-05-29T02:58:32.997Z,99.90
2018-05-29T02:59:35.521Z,99.90
2018-05-29T03:00:38.824Z,99.90
2018-05-29T03:01:41.295Z,99.90
2018-05-29T03:02:44.022Z,99.90
2018-05-29T03:03:47.425Z,99.90
2018-05-29T03:04:50.833Z,99.90
2018-05-29T03:05:53.301Z,99.90
2018-05-29T03:06:55.786Z,99.90
2018-05-29T03:07:58.266Z,99.90
2018-05-29T03:09:00.754Z,99.90
2018-05-29T03:10:03.240Z,99.90
2018-05-29T03:11:05.746Z,99.90
2018-05-29T03:12:08.215Z,99.90
2018-05-29T03:13:10.677Z,99.90
2018-05-29T03:14:13.301Z,99.90
2018-05-29T03:15:15.875Z,99.90
2018-05-29T03:16:18.382Z,99.90
2018-05-29T03:17:20.799Z,99.90
2018-05-29T03:18:23.300Z,99.90
2018-05-29T03:19:25.837Z,99.90
2018-05-29T03:20:28.323Z,99.90
2018-05-29T03:21:30.802Z,99.90
2018-05-29T03:22:34.044Z,99.90
2018-05-29T03:23:37.289Z,99.90
2018-05-29T03:24:40.553Z,99.90
2018-05-29T03:25:43.121Z,99.90
2018-05-29T03:26:45.885Z,99.90
2018-05-29T03:27:48.361Z,99.90
2018-05-29T03:28:51.002Z,99.90
2018-05-29T03:29:53.505Z,99.90
2018-05-29T03:30:55.986Z,99.90
2018-05-29T03:31:58.468Z,99.90
2018-05-29T03:33:00.967Z,99.90
2018-05-29T03:34:03.449Z,99.90
2018-05-29T03:35:06.018Z,99.90
2018-05-29T03:36:08.561Z,99.90
2018-05-29T03:37:11.030Z,99.90
2018-05-29T03:38:13.589Z,99.90
2018-05-29T03:39:16.068Z,99.90
2018-05-29T03:40:18.545Z,99.90
2018-05-29T03:41:21.027Z,99.90
2018-05-29T03:42:23.478Z,99.90
2018-05-29T03:43:26.710Z,99.90
2018-05-29T03:44:29.169Z,99.90
2018-05-29T03:45:31.651Z,99.90
2018-05-29T03:46:34.125Z,99.90
2018-05-29T03:47:36.591Z,99.90
2018-05-29T03:48:39.052Z,99.90
2018-05-29T03:49:41.521Z,99.90
2018-05-29T03:50:44.020Z,99.90
2018-05-29T03:51:46.489Z,99.90
2018-05-29T03:52:48.965Z,99.90
2018-05-29T03:53:51.442Z,99.90
2018-05-29T03:54:53.941Z,99.90
2018-05-29T03:55:56.442Z,99.90
2018-05-29T03:56:58.980Z,99.90
2018-05-29T03:58:01.473Z,99.90
2018-05-29T03:59:04.748Z,99.90
2018-05-29T04:00:07.222Z,99.90
2018-05-29T04:01:09.788Z,99.90
2018-05-29T04:02:12.356Z,99.90
2018-05-29T04:03:14.816Z,99.90
2018-05-29T04:04:18.090Z,99.90
2018-05-29T04:05:20.565Z,99.90
2018-05-29T04:06:23.020Z,99.90
2018-05-29T04:07:25.501Z,99.90
2018-05-29T04:08:27.989Z,99.90
2018-05-29T04:09:30.460Z,99.90
2018-05-29T04:10:32.928Z,99.90
2018-05-29T04:11:35.421Z,99.90
2018-05-29T04:12:37.985Z,99.90
2018-05-29T04:13:40.468Z,99.90
2018-05-29T04:14:42.938Z,99.90
2018-05-29T04:15:45.491Z,99.90
2018-05-29T04:18:14.323Z,99.90
2018-05-29T04:19:17.604Z,99.90
2018-05-29T04:20:20.072Z,99.90
2018-05-29T04:21:23.051Z,99.90
2018-05-29T04:22:25.548Z,99.90
2018-05-29T04:23:28.796Z,99.90
2018-05-29T04:24:32.057Z,99.90
2018-05-29T04:25:34.592Z,99.90
2018-05-29T04:26:37.061Z,99.90
2018-05-29T04:27:39.550Z,99.90
2018-05-29T04:28:42.019Z,99.90
2018-05-29T04:29:44.500Z,99.90
2018-05-29T04:30:47.022Z,99.90
2018-05-29T04:31:49.480Z,99.90
2018-05-29T04:32:51.955Z,99.90
2018-05-29T04:33:54.428Z,99.90
2018-05-29T04:34:56.907Z,99.90
2018-05-29T04:36:00.156Z,99.90
2018-05-29T04:37:02.629Z,99.80
2018-05-29T04:38:05.109Z,99.80
2018-05-29T04:39:07.603Z,99.90
2018-05-29T04:40:10.086Z,99.90
2018-05-29T04:41:12.576Z,99.90
2018-05-29T04:42:15.051Z,99.90
2018-05-29T04:43:17.504Z,99.90
2018-05-29T04:44:19.994Z,99.90
2018-05-29T04:45:22.459Z,99.70
2018-05-29T04:46:25.712Z,99.90
2018-05-29T04:47:28.250Z,99.90
2018-05-29T04:48:31.460Z,99.90
2018-05-29T04:49:34.735Z,99.90
2018-05-29T04:50:37.252Z,99.80
2018-05-29T04:51:39.753Z,99.50
2018-05-29T04:52:42.992Z,99.80
2018-05-29T04:53:45.453Z,99.80
2018-05-29T04:54:47.925Z,99.60
2018-05-29T04:55:50.400Z,99.80
2018-05-29T04:56:52.970Z,99.60
2018-05-29T04:57:55.494Z,99.50
2018-05-29T04:58:57.982Z,99.70
2018-05-29T05:00:00.468Z,99.70
2018-05-29T05:01:02.962Z,99.90
2018-05-29T05:02:05.450Z,99.60
2018-05-29T05:03:07.918Z,99.30
2018-05-29T05:04:10.388Z,99.50
2018-05-29T05:05:13.656Z,98.90
2018-05-29T05:06:16.135Z,98.90
2018-05-29T05:07:18.796Z,99.10
2018-05-29T05:08:21.244Z,99.60
2018-05-29T05:09:23.744Z,99.30
2018-05-29T05:10:26.216Z,98.90
2018-05-29T05:11:28.791Z,98.70
2018-05-29T05:12:31.252Z,98.60
2018-05-29T05:13:33.726Z,98.80
2018-05-29T05:14:37.469Z,99.10
2018-05-29T05:15:40.540Z,99.10
2018-05-29T05:16:43.018Z,99.50
2018-05-29T05:17:46.302Z,98.70
2018-05-29T05:18:48.773Z,98.60
2018-05-29T05:19:51.251Z,98.70
2018-05-29T05:20:53.729Z,98.30
2018-05-29T05:21:56.711Z,98.50
2018-05-29T05:22:59.176Z,98.50
2018-05-29T05:24:01.646Z,98.50
2018-05-29T05:25:04.895Z,98.50
2018-05-29T05:26:08.153Z,98.60
2018-05-29T05:27:10.630Z,98.60
2018-05-29T05:28:13.096Z,98.60
2018-05-29T05:29:15.613Z,98.40
2018-05-29T05:30:18.082Z,98.10
2018-05-29T05:31:20.568Z,97.90
2018-05-29T05:32:23.061Z,97.50
2018-05-29T05:33:25.519Z,97.10
2018-05-29T05:34:27.984Z,96.90
2018-05-29T05:35:30.452Z,97.40
2018-05-29T05:36:33.805Z,96.90
2018-05-29T05:37:37.064Z,96.50
2018-05-29T05:38:39.533Z,96.40
2018-05-29T05:39:42.002Z,96.50
2018-05-29T05:40:45.245Z,96.10
2018-05-29T05:41:47.773Z,96.10
2018-05-29T05:42:50.248Z,96.00
2018-05-29T05:43:52.754Z,95.90
2018-05-29T05:44:55.242Z,95.90
2018-05-29T05:45:58.506Z,96.00
2018-05-29T05:47:01.026Z,96.00
2018-05-29T05:48:03.504Z,96.10
2018-05-29T05:49:05.990Z,95.70
2018-05-29T05:50:08.463Z,95.30
2018-05-29T05:51:11.543Z,95.20
2018-05-29T05:52:14.067Z,94.70
2018-05-29T05:53:16.565Z,94.80
2018-05-29T05:54:19.800Z,94.70
2018-05-29T05:55:23.046Z,94.20
2018-05-29T05:56:26.338Z,94.00
2018-05-29T05:57:29.663Z,94.30
2018-05-29T05:58:32.163Z,94.30
2018-05-29T05:59:34.608Z,94.00
2018-05-29T06:00:37.148Z,92.80
2018-05-29T06:01:39.678Z,92.60
2018-05-29T06:02:42.195Z,92.00
2018-05-29T06:03:44.670Z,92.10
2018-05-29T06:04:47.158Z,90.80
2018-05-29T06:05:49.624Z,91.10
2018-05-29T06:06:52.105Z,90.40
2018-05-29T06:07:54.570Z,90.70
2018-05-29T06:08:57.037Z,89.90
2018-05-29T06:09:59.567Z,90.10
2018-05-29T06:11:02.306Z,89.00
2018-05-29T06:12:04.840Z,88.70
2018-05-29T06:13:07.327Z,87.60
2018-05-29T06:14:10.582Z,86.30
2018-05-29T06:15:13.039Z,86.30
2018-05-29T06:16:15.643Z,85.10
2018-05-29T06:17:18.128Z,85.20
2018-05-29T06:18:20.609Z,85.30
2018-05-29T06:19:23.925Z,85.60
2018-05-29T06:20:26.441Z,85.50
2018-05-29T06:21:29.669Z,83.70
2018-05-29T06:22:32.212Z,83.70
2018-05-29T06:23:35.493Z,81.40
2018-05-29T06:24:37.990Z,81.40
2018-05-29T06:25:41.232Z,81.00
2018-05-29T06:26:43.733Z,80.90
2018-05-29T06:27:46.976Z,79.70
2018-05-29T06:28:50.238Z,79.20
2018-05-29T06:29:53.506Z,79.70
2018-05-29T06:30:56.022Z,79.70
2018-05-29T06:31:58.502Z,79.60
2018-05-29T06:33:01.027Z,79.00
2018-05-29T06:34:03.497Z,80.00
2018-05-29T06:35:06.041Z,77.50
2018-05-29T06:36:08.548Z,78.50
2018-05-29T06:37:11.036Z,76.10
2018-05-29T06:38:13.545Z,75.90
2018-05-29T06:39:17.501Z,76.40
2018-05-29T06:40:19.963Z,76.40
2018-05-29T06:41:22.427Z,74.20
2018-05-29T06:42:25.032Z,74.90
2018-05-29T06:43:27.529Z,73.90
2018-05-29T06:44:30.764Z,69.90
2018-05-29T06:45:33.999Z,70.90
2018-05-29T06:46:36.995Z,70.90
2018-05-29T06:47:39.592Z,69.50
2018-05-29T06:48:42.144Z,68.50
2018-05-29T06:49:44.613Z,68.00
2018-05-29T06:50:47.881Z,69.80
2018-05-29T06:51:50.943Z,69.00
2018-05-29T06:52:53.436Z,69.10
2018-05-29T06:53:55.950Z,68.60
2018-05-29T06:54:59.180Z,66.50
2018-05-29T06:56:01.662Z,66.40
2018-05-29T06:57:04.117Z,66.00
2018-05-29T06:58:06.631Z,66.50
2018-05-29T06:59:09.189Z,66.30
2018-05-29T07:00:11.690Z,64.30
2018-05-29T07:01:14.181Z,64.50
2018-05-29T07:02:16.632Z,64.30
2018-05-29T07:03:19.147Z,63.90
2018-05-29T07:04:21.616Z,63.80
2018-05-29T07:05:25.199Z,63.20
2018-05-29T07:06:28.428Z,62.60
2018-05-29T07:07:31.659Z,62.90
2018-05-29T07:08:34.916Z,63.10
2018-05-29T07:09:38.155Z,63.20
2018-05-29T07:10:41.405Z,62.40
2018-05-29T07:11:44.692Z,63.00
2018-05-29T07:12:47.185Z,62.70
2018-05-29T07:13:49.664Z,61.20
2018-05-29T07:14:52.177Z,61.10
2018-05-29T07:15:54.695Z,61.20
2018-05-29T07:16:57.187Z,61.40
2018-05-29T07:17:59.681Z,61.00
2018-05-29T07:19:02.780Z,59.50
2018-05-29T07:20:05.249Z,59.60
2018-05-29T07:21:08.474Z,58.20
2018-05-29T07:22:10.939Z,58.10
2018-05-29T07:23:13.454Z,58.70
2018-05-29T07:24:16.719Z,60.10
2018-05-29T07:25:19.283Z,60.40
2018-05-29T07:26:21.731Z,61.50
2018-05-29T07:27:24.215Z,61.40
2018-05-29T07:28:26.712Z,57.50
2018-05-29T07:29:29.187Z,57.00
2018-05-29T07:30:31.673Z,57.20
2018-05-29T07:31:34.169Z,57.20
2018-05-29T07:32:37.395Z,55.20
2018-05-29T07:33:39.971Z,55.10
2018-05-29T07:34:42.479Z,56.30
2018-05-29T07:35:45.009Z,55.60
2018-05-29T07:36:47.527Z,54.70
2018-05-29T07:37:50.016Z,53.80
2018-05-29T07:38:52.621Z,54.50
2018-05-29T07:39:55.077Z,55.90
2018-05-29T07:40:57.560Z,55.30
2018-05-29T07:42:00.018Z,54.50
2018-05-29T07:43:02.506Z,54.00
2018-05-29T07:44:05.000Z,53.20
2018-05-29T07:45:08.251Z,54.90
2018-05-29T07:46:10.750Z,55.10
2018-05-29T07:47:13.239Z,54.20
2018-05-29T07:48:15.728Z,53.00
2018-05-29T07:49:18.216Z,51.80
2018-05-29T07:50:20.664Z,53.80
2018-05-29T07:51:23.241Z,54.20
2018-05-29T07:52:25.724Z,54.30
2018-05-29T07:53:28.254Z,56.00
2018-05-29T07:54:30.738Z,52.40
2018-05-29T07:55:33.205Z,52.10
2018-05-29T07:56:35.662Z,51.40
2018-05-29T07:57:38.811Z,50.70
2018-05-29T07:58:41.291Z,52.50
2018-05-29T07:59:43.775Z,52.90
2018-05-29T08:00:47.748Z,51.60
2018-05-29T08:01:50.961Z,51.40
2018-05-29T08:02:53.554Z,50.70
2018-05-29T08:03:56.025Z,51.50
2018-05-29T08:04:58.510Z,50.20
2018-05-29T08:06:00.996Z,50.40
2018-05-29T08:07:04.242Z,50.90
2018-05-29T08:08:07.464Z,51.80
2018-05-29T08:09:09.952Z,51.80
2018-05-29T08:10:12.420Z,52.70
2018-05-29T08:11:15.675Z,49.70
2018-05-29T08:12:18.945Z,50.30
2018-05-29T08:13:21.416Z,50.20
2018-05-29T08:14:24.685Z,48.60
2018-05-29T08:15:27.927Z,50.80
2018-05-29T08:16:31.188Z,50.70
2018-05-29T08:17:33.665Z,50.70
2018-05-29T08:18:36.996Z,50.70
2018-05-29T08:19:39.517Z,50.70
2018-05-29T08:20:41.988Z,50.80
2018-05-29T08:21:45.228Z,51.40
2018-05-29T08:22:48.468Z,50.90
2018-05-29T08:23:51.721Z,51.20
2018-05-29T08:24:54.208Z,51.10
2018-05-29T08:25:56.683Z,50.10
2018-05-29T08:26:59.208Z,50.70
2018-05-29T08:28:01.732Z,50.50
2018-05-29T08:29:04.209Z,50.30
2018-05-29T08:30:06.784Z,51.00
2018-05-29T08:31:09.250Z,51.20
2018-05-29T08:32:11.721Z,51.60
2018-05-29T08:33:14.945Z,49.90
2018-05-29T08:34:18.245Z,49.30
2018-05-29T08:35:20.744Z,49.20
2018-05-29T08:36:23.237Z,49.20
2018-05-29T08:37:26.500Z,49.00
2018-05-29T08:38:29.782Z,48.20
2018-05-29T08:39:32.283Z,48.10
2018-05-29T08:40:34.766Z,48.50
2018-05-29T08:41:37.258Z,48.70
2018-05-29T08:42:39.714Z,49.60
2018-05-29T08:43:42.366Z,50.70
2018-05-29T08:44:44.883Z,51.00
2018-05-29T08:45:48.108Z,50.10
2018-05-29T08:46:50.583Z,50.00
2018-05-29T08:47:53.091Z,49.80
2018-05-29T08:48:56.349Z,50.10
2018-05-29T08:49:58.859Z,50.10
2018-05-29T08:51:02.121Z,50.40
2018-05-29T08:52:04.597Z,50.90
2018-05-29T08:53:07.065Z,49.30
2018-05-29T08:54:10.300Z,49.50
2018-05-29T08:55:12.866Z,49.50
2018-05-29T08:56:15.505Z,50.30
2018-05-29T08:57:18.038Z,49.80
2018-05-29T08:58:20.480Z,49.60
2018-05-29T08:59:23.766Z,50.80
2018-05-29T09:00:26.299Z,50.60
2018-05-29T09:01:28.774Z,50.00
2018-05-29T09:02:32.021Z,49.70
2018-05-29T09:03:35.248Z,50.00
2018-05-29T09:04:38.508Z,51.90
2018-05-29T09:05:41.761Z,49.70
2018-05-29T09:06:45.016Z,50.00
2018-05-29T09:07:47.489Z,50.00
2018-05-29T09:08:50.109Z,50.30
2018-05-29T09:09:52.661Z,50.00
2018-05-29T09:10:55.114Z,50.80
2018-05-29T09:11:58.392Z,50.40
2018-05-29T09:13:00.879Z,50.40
2018-05-29T09:14:04.112Z,49.10
2018-05-29T09:15:06.628Z,49.00
2018-05-29T09:16:09.904Z,52.40
2018-05-29T09:17:12.380Z,51.70
2018-05-29T09:18:15.576Z,50.40
2018-05-29T09:19:18.063Z,50.20
2018-05-29T09:20:21.339Z,50.80
2018-05-29T09:21:23.854Z,50.60
2018-05-29T09:22:26.382Z,50.00
2018-05-29T09:23:28.887Z,50.80
2018-05-29T09:24:32.107Z,48.50
2018-05-29T09:25:35.297Z,48.40
2018-05-29T09:26:37.792Z,50.10
2018-05-29T09:27:41.040Z,50.70
2018-05-29T09:28:44.292Z,50.60
2018-05-29T09:29:47.576Z,50.40
2018-05-29T09:30:50.781Z,48.60
2018-05-29T09:31:54.024Z,50.50
2018-05-29T09:32:57.259Z,51.70
2018-05-29T09:34:00.630Z,50.40
2018-05-29T09:35:05.057Z,50.40
2018-05-29T09:36:07.568Z,49.00
2018-05-29T09:37:10.148Z,50.20
2018-05-29T09:38:12.718Z,50.70
2018-05-29T09:39:15.178Z,51.20
2018-05-29T09:40:18.547Z,50.40
2018-05-29T09:41:21.008Z,50.40
2018-05-29T09:42:24.094Z,50.50
2018-05-29T09:43:26.564Z,51.10
2018-05-29T09:44:29.040Z,49.60
2018-05-29T09:45:32.299Z,50.80
2018-05-29T09:46:34.789Z,50.80
2018-05-29T09:47:38.063Z,49.80
2018-05-29T09:48:41.228Z,49.80
2018-05-29T09:49:43.704Z,50.90
2018-05-29T09:50:46.967Z,48.80
2018-05-29T09:51:49.437Z,48.70
2018-05-29T09:52:51.995Z,49.30
2018-05-29T09:53:54.454Z,49.90
2018-05-29T09:54:56.940Z,49.20
2018-05-29T09:56:00.189Z,48.60
2018-05-29T09:57:03.438Z,48.80
2018-05-29T09:58:06.683Z,49.30
2018-05-29T09:59:09.932Z,50.50
2018-05-29T10:00:12.397Z,50.20
2018-05-29T10:01:14.975Z,49.40
2018-05-29T10:02:17.386Z,51.00
2018-05-29T10:03:20.613Z,49.20
2018-05-29T10:04:23.304Z,48.70
2018-05-29T10:05:25.805Z,50.30
2018-05-29T10:06:29.265Z,49.10
2018-05-29T10:07:32.323Z,49.10
2018-05-29T10:08:34.808Z,48.80
2018-05-29T10:09:38.041Z,49.40
2018-05-29T10:10:41.360Z,47.40
2018-05-29T10:11:43.840Z,47.40
2018-05-29T10:12:46.289Z,48.80
2018-05-29T10:13:48.828Z,48.40
2018-05-29T10:14:51.292Z,50.40
2018-05-29T10:15:54.533Z,50.80
2018-05-29T10:16:57.901Z,50.00
2018-05-29T10:18:00.390Z,50.00
2018-05-29T10:19:03.621Z,49.30
2018-05-29T10:20:06.857Z,50.10
2018-05-29T10:21:09.345Z,50.20
2018-05-29T10:22:11.820Z,50.80
2018-05-29T10:23:15.061Z,49.60
2018-05-29T10:24:17.615Z,49.00
2018-05-29T10:25:20.195Z,47.10
2018-05-29T10:26:22.700Z,45.60
2018-05-29T10:27:25.309Z,47.20
2018-05-29T10:28:27.797Z,46.70
2018-05-29T10:29:31.117Z,46.00
2018-05-29T10:30:33.598Z,46.00
2018-05-29T10:31:36.166Z,45.80
2018-05-29T10:32:38.683Z,47.60
2018-05-29T10:33:41.148Z,46.20
2018-05-29T10:34:44.420Z,45.60
2018-05-29T10:35:46.905Z,45.60
2018-05-29T10:36:49.478Z,45.40
2018-05-29T10:37:51.972Z,45.50
2018-05-29T10:38:55.352Z,45.40
2018-05-29T10:39:57.834Z,45.40
2018-05-29T10:41:01.076Z,46.30
2018-05-29T10:42:04.344Z,46.70
2018-05-29T10:43:07.575Z,46.70
2018-05-29T10:44:10.816Z,47.80
2018-05-29T10:45:14.072Z,47.20
2018-05-29T10:46:16.839Z,47.20
2018-05-29T10:47:19.422Z,47.20
2018-05-29T10:48:22.659Z,46.60
2018-05-29T10:49:25.300Z,46.70
2018-05-29T10:50:27.767Z,46.00
2018-05-29T10:51:30.320Z,47.00
2018-05-29T10:52:32.976Z,46.50
2018-05-29T10:53:36.239Z,45.10
2018-05-29T10:54:41.294Z,45.10
2018-05-29T10:55:44.032Z,45.90
2018-05-29T10:56:46.592Z,46.10
2018-05-29T10:57:49.341Z,46.30
2018-05-29T10:58:51.816Z,46.10
2018-05-29T10:59:55.040Z,48.50
2018-05-29T11:00:58.283Z,46.30
2018-05-29T11:02:01.661Z,47.10
2018-05-29T11:03:04.131Z,47.10
2018-05-29T11:04:06.687Z,49.70
2018-05-29T11:05:09.924Z,49.30
2018-05-29T11:06:13.424Z,49.30
2018-05-29T11:07:15.917Z,49.20
2018-05-29T11:08:18.376Z,48.10
2018-05-29T11:09:20.851Z,47.40
2018-05-29T11:10:24.096Z,48.00
2018-05-29T11:11:27.469Z,48.50
2018-05-29T11:12:29.968Z,48.50
2018-05-29T11:13:33.340Z,48.30
2018-05-29T11:14:35.824Z,48.30
2018-05-29T11:15:39.048Z,47.50
2018-05-29T11:16:41.563Z,47.80
2018-05-29T11:17:44.139Z,49.00
2018-05-29T11:18:47.382Z,46.30
2018-05-29T11:19:50.603Z,46.90
2018-05-29T11:20:53.883Z,46.70
2018-05-29T11:21:56.353Z,46.70
2018-05-29T11:22:58.837Z,48.20
2018-05-29T11:24:01.310Z,48.40
2018-05-29T11:25:03.773Z,47.40
2018-05-29T11:26:06.254Z,46.30
2018-05-29T11:27:08.824Z,47.20
2018-05-29T11:28:11.345Z,46.70
2018-05-29T11:29:13.824Z,45.70
2018-05-29T11:30:16.328Z,45.50
2018-05-29T11:31:18.860Z,49.10
2018-05-29T11:32:21.307Z,48.20
2018-05-29T11:33:23.822Z,47.20
2018-05-29T11:34:26.348Z,46.80
2018-05-29T11:35:28.812Z,46.70
2018-05-29T11:36:32.076Z,46.60
2018-05-29T11:37:34.563Z,46.60
2018-05-29T11:38:37.925Z,47.40
2018-05-29T11:39:41.140Z,46.20
2018-05-29T11:40:44.372Z,46.40
2018-05-29T11:41:46.855Z,46.40
2018-05-29T11:42:49.351Z,46.90
2018-05-29T11:43:51.836Z,44.60
2018-05-29T11:44:54.297Z,45.30
2018-05-29T11:45:57.752Z,45.30
2018-05-29T11:47:01.006Z,46.20
2018-05-29T11:48:04.260Z,46.50
2018-05-29T11:49:06.771Z,46.50
2018-05-29T11:50:09.254Z,46.20
2018-05-29T11:51:11.723Z,45.60
2018-05-29T11:52:14.189Z,47.40
2018-05-29T11:53:16.679Z,47.60
2018-05-29T11:54:19.205Z,47.10
2018-05-29T11:55:21.666Z,45.50
2018-05-29T11:56:24.211Z,44.10
2018-05-29T11:57:26.772Z,45.20
2018-05-29T11:58:29.278Z,45.60
2018-05-29T11:59:32.524Z,47.50
2018-05-29T12:00:36.535Z,47.30
2018-05-29T12:01:38.962Z,47.30
2018-05-29T12:02:41.441Z,46.00
2018-05-29T12:03:44.696Z,47.80
2018-05-29T12:04:47.942Z,46.50
2018-05-29T12:05:50.424Z,46.50
2018-05-29T12:06:54.083Z,46.10
2018-05-29T12:07:56.650Z,45.90
2018-05-29T12:08:59.124Z,45.10
2018-05-29T12:10:01.600Z,45.90
2018-05-29T12:11:04.070Z,45.60
2018-05-29T12:12:18.749Z,47.00
2018-05-29T12:13:21.298Z,48.00
2018-05-29T12:14:23.783Z,46.60
2018-05-29T12:15:26.249Z,44.90
2018-05-29T12:16:28.718Z,46.30
2018-05-29T12:17:31.968Z,46.30
2018-05-29T12:18:34.449Z,46.40
2018-05-29T12:19:37.145Z,47.10
2018-05-29T12:20:39.613Z,44.90
2018-05-29T12:21:42.060Z,45.00
2018-05-29T12:22:44.729Z,45.60
2018-05-29T12:23:47.937Z,46.00
2018-05-29T12:24:50.401Z,45.10
2018-05-29T12:25:52.881Z,45.60
2018-05-29T12:26:56.136Z,44.90
2018-05-29T12:27:58.651Z,44.90
2018-05-29T12:29:01.157Z,45.10
2018-05-29T12:30:03.634Z,45.40
2018-05-29T12:31:06.088Z,45.40
2018-05-29T12:32:09.271Z,45.10
2018-05-29T12:33:11.747Z,44.90
2018-05-29T12:34:14.374Z,44.40
2018-05-29T12:35:16.879Z,45.20
2018-05-29T12:36:19.333Z,46.10
2018-05-29T12:37:22.622Z,43.50
2018-05-29T12:38:25.119Z,43.50
2018-05-29T12:39:27.582Z,44.30
2018-05-29T12:40:30.066Z,45.80
2018-05-29T12:41:33.303Z,45.90
2018-05-29T12:42:35.771Z,45.90
2018-05-29T12:43:38.308Z,45.10
2018-05-29T12:44:40.810Z,46.40
2018-05-29T12:45:43.285Z,45.70
2018-05-29T12:46:46.080Z,46.00
2018-05-29T12:47:48.544Z,45.60
2018-05-29T12:48:51.055Z,44.60
2018-05-29T12:49:53.533Z,44.80
2018-05-29T12:50:56.072Z,47.00
2018-05-29T12:51:59.701Z,46.60
2018-05-29T12:53:02.960Z,45.10
2018-05-29T12:54:05.899Z,44.90
2018-05-29T12:55:08.360Z,43.30
2018-05-29T12:56:10.843Z,44.50
2018-05-29T12:57:13.308Z,45.00
2018-05-29T12:58:15.791Z,45.50
2018-05-29T12:59:19.040Z,44.40
2018-05-29T13:00:21.569Z,45.10
2018-05-29T13:01:24.071Z,45.20
2018-05-29T13:02:27.313Z,45.20
2018-05-29T13:03:30.577Z,45.00
2018-05-29T13:04:33.035Z,45.00
2018-05-29T13:05:35.500Z,45.20
2018-05-29T13:06:37.964Z,45.00
2018-05-29T13:07:40.484Z,43.90
2018-05-29T13:08:42.955Z,44.50
2018-05-29T13:09:46.149Z,45.80
2018-05-29T13:10:48.626Z,44.90
2018-05-29T13:11:51.089Z,45.00
2018-05-29T13:12:54.124Z,45.10
2018-05-29T13:13:56.599Z,45.40
2018-05-29T13:14:59.226Z,45.40
2018-05-29T13:16:01.700Z,46.30
2018-05-29T13:17:05.063Z,44.20
2018-05-29T13:18:07.547Z,44.20
2018-05-29T13:19:10.091Z,44.80
2018-05-29T13:20:13.333Z,46.60
2018-05-29T13:21:16.569Z,46.20
2018-05-29T13:22:19.806Z,47.70
2018-05-29T13:23:23.808Z,45.80
2018-05-29T13:24:26.426Z,45.80
2018-05-29T13:25:28.905Z,45.90
2018-05-29T13:26:32.203Z,45.40
2018-05-29T13:27:34.711Z,45.40
2018-05-29T13:28:37.309Z,46.40
2018-05-29T13:29:40.611Z,46.60